Time;durP1;ratioP1;P1;durP2;ratioP2;P2;SDS_P1;SDS_P2;PMS_P1;PMS_P2;Temp;Humidity;BMP_temperature;BMP_pressure;BME280_temperature;BME280_humidity;BME280_pressure;Samples;Min_cycle;Max_cycle;Signal;HPM_P1;HPM_P2
2022/05/25 00:00:22;;;;;;;5.53;4.43;;;;;;;26.31;48.04;100330.59;5114567;28;20040;-80
2022/05/25 00:02:50;;;;;;;7.25;4.30;;;;;;;26.29;48.02;100332.63;5115383;28;20047;-80
2022/05/25 00:05:19;;;;;;;6.05;4.50;;;;;;;26.29;47.97;100340.78;5097134;28;20051;-80
2022/05/25 00:07:47;;;;;;;5.75;4.63;;;;;;;26.27;47.88;100329.28;5116478;28;20055;-80
2022/05/25 00:10:14;;;;;;;6.97;4.75;;;;;;;26.26;47.85;100338.47;5114485;28;20039;-81
2022/05/25 00:12:42;;;;;;;6.35;4.57;;;;;;;26.26;47.98;100333.88;5114478;28;20043;-81
2022/05/25 00:15:12;;;;;;;6.68;4.72;;;;;;;26.25;47.91;100337.63;5115759;28;20421;-81
2022/05/25 00:17:39;;;;;;;7.47;4.68;;;;;;;26.25;48.15;100340.34;5115532;28;20048;-80
2022/05/25 00:20:09;;;;;;;5.40;4.38;;;;;;;26.25;48.12;100340.34;5115254;28;20039;-81
2022/05/25 00:22:45;;;;;;;5.75;4.03;;;;;;;26.25;48.29;100347.63;5114956;28;20509;-81
2022/05/25 00:25:21;;;;;;;6.15;4.45;;;;;;;26.24;48.11;100340.50;5114827;28;20398;-82
2022/05/25 00:27:49;;;;;;;6.43;4.38;;;;;;;26.23;48.18;100350.53;5114041;28;20052;-81
2022/05/25 00:30:18;;;;;;;6.15;4.35;;;;;;;26.24;48.38;100343.22;5115768;28;20043;-81
2022/05/25 00:32:45;;;;;;;7.35;4.75;;;;;;;26.24;48.27;100348.66;5115874;28;20055;-81
2022/05/25 00:35:17;;;;;;;5.95;4.13;;;;;;;26.22;48.50;100348.00;5115635;28;20434;-81
2022/05/25 00:37:45;;;;;;;5.47;4.00;;;;;;;26.22;48.64;100354.28;5114719;28;20051;-81
2022/05/25 00:40:21;;;;;;;6.45;4.43;;;;;;;26.23;48.81;100365.97;5113097;28;20048;-81
2022/05/25 00:42:49;;;;;;;6.63;4.65;;;;;;;26.22;48.73;100361.59;5115210;28;20054;-82
2022/05/25 00:45:17;;;;;;;5.05;3.80;;;;;;;26.21;48.59;100362.59;5115561;28;20494;-82
2022/05/25 00:47:48;;;;;;;6.15;4.85;;;;;;;26.20;48.60;100360.91;5113665;28;20047;-82
2022/05/25 00:50:18;;;;;;;6.78;5.00;;;;;;;26.20;48.48;100363.63;5115255;28;20053;-81
2022/05/25 00:52:48;;;;;;;6.38;4.70;;;;;;;26.18;48.49;100358.41;5113112;28;20402;-81
2022/05/25 00:55:20;;;;;;;7.50;4.90;;;;;;;26.18;48.44;100357.56;5115193;28;20131;-81
2022/05/25 00:57:49;;;;;;;6.93;4.40;;;;;;;26.18;48.41;100354.84;5114087;28;20043;-81
2022/05/25 01:00:21;;;;;;;4.93;4.18;;;;;;;26.18;48.34;100363.00;5113673;28;20043;-80
2022/05/25 01:02:53;;;;;;;7.25;4.40;;;;;;;26.17;48.41;100361.28;5113416;28;20071;-80
2022/05/25 01:05:28;;;;;;;5.97;4.53;;;;;;;26.18;48.39;100360.28;5113221;28;20058;-80
2022/05/25 01:08:07;;;;;;;6.68;5.30;;;;;;;26.17;48.33;100369.41;5112126;28;20516;-81
2022/05/25 01:11:14;;;;;;;6.07;4.72;;;;;;;26.16;48.19;100368.56;5097093;28;20047;-80
2022/05/25 01:14:00;;;;;;;6.32;4.45;;;;;;;26.17;48.16;100377.56;5115710;28;20047;-81
2022/05/25 01:16:30;;;;;;;7.25;5.20;;;;;;;26.14;48.31;100379.63;5112591;28;20054;-81
2022/05/25 01:19:35;;;;;;;6.93;5.22;;;;;;;26.14;48.27;100374.22;5113894;28;20043;-80
2022/05/25 01:22:28;;;;;;;8.45;5.28;;;;;;;26.14;48.27;100368.78;5113954;28;20046;-80
2022/05/25 01:24:56;;;;;;;;;;;;;;;26.13;48.27;100367.09;5115169;28;20091;-81
2022/05/25 01:27:41;;;;;;;10.45;5.45;;;;;;;26.11;48.36;100371.88;5114488;28;20014;-82
2022/05/25 01:30:15;;;;;;;8.27;4.88;;;;;;;26.12;48.30;100376.25;5113398;28;20047;-81
2022/05/25 01:32:59;;;;;;;9.70;5.28;;;;;;;26.12;47.92;100372.69;5114758;28;20074;-81
2022/05/25 01:35:39;;;;;;;8.07;5.78;;;;;;;26.11;48.22;100382.72;5114022;28;20074;-81
2022/05/25 01:38:28;;;;;;;7.45;5.65;;;;;;;26.10;48.13;100386.47;5114088;28;20055;-81
2022/05/25 01:41:20;;;;;;;10.48;5.90;;;;;;;26.08;48.00;100385.78;5114749;28;20054;-81
2022/05/25 01:44:06;;;;;;;10.20;5.45;;;;;;;26.08;48.21;100384.97;5115100;28;20391;-81
2022/05/25 01:46:43;;;;;;;9.35;5.47;;;;;;;26.08;47.78;100384.97;5113648;28;20047;-80
2022/05/25 01:49:15;;;;;;;8.05;5.00;;;;;;;26.07;47.84;100381.41;5115117;28;20058;-81
2022/05/25 01:51:49;;;;;;;9.82;5.65;;;;;;;26.07;47.94;100384.13;5114424;28;20055;-82
2022/05/25 01:54:23;;;;;;;7.32;5.05;;;;;;;26.07;47.90;100378.69;5114346;28;20051;-80
2022/05/25 01:56:55;;;;;;;8.93;5.07;;;;;;;26.08;48.22;100383.09;5113312;28;20043;-81
2022/05/25 01:59:22;;;;;;;8.23;4.93;;;;;;;26.08;48.05;100383.09;5114947;28;20056;-80
2022/05/25 02:04:45;;;;;;;9.48;5.30;;;;;;;26.09;48.00;100373.94;5116659;28;20055;-80
2022/05/25 02:07:18;;;;;;;10.05;5.57;;;;;;;26.08;47.97;100372.22;5117035;28;20048;-80
2022/05/25 02:10:04;;;;;;;;;;;;;;;26.08;47.83;100377.66;5118199;28;20050;-81
2022/05/25 02:16:25;;;;;;;10.20;5.72;;;;;;;26.08;48.13;100374.09;5117237;28;20043;-81
2022/05/25 02:19:05;;;;;;;12.00;6.07;;;;;;;26.06;47.86;100377.03;5114777;28;20052;-81
2022/05/25 02:21:44;;;;;;;10.57;5.35;;;;;;;26.07;48.12;100375.97;5116853;28;20475;-81
2022/05/25 02:24:12;;;;;;;8.13;5.43;;;;;;;26.06;47.85;100382.44;5117461;28;20122;-80
2022/05/25 02:26:59;;;;;;;7.03;5.40;;;;;;;26.06;48.11;100377.03;5116120;28;20406;-80
2022/05/25 02:29:47;;;;;;;6.32;5.65;;;;;;;26.07;48.09;100377.84;5117706;28;20471;-80
2022/05/25 02:32:26;;;;;;;8.25;5.68;;;;;;;26.06;48.09;100378.88;5118964;28;20048;-80
2022/05/25 02:34:56;;;;;;;7.63;5.28;;;;;;;26.06;48.14;100374.31;5117504;28;20565;-80
2022/05/25 02:37:26;;;;;;;8.15;5.10;;;;;;;26.05;47.95;100375.34;5115157;28;20059;-80
2022/05/25 02:39:54;;;;;;;9.82;5.43;;;;;;;26.05;48.14;100383.47;5114113;28;20059;-80
2022/05/25 02:42:21;;;;;;;9.48;5.10;;;;;;;26.05;48.15;100386.19;5114883;28;20407;-80
2022/05/25 02:44:49;;;;;;;6.13;4.60;;;;;;;26.04;48.02;100384.47;5118195;28;20047;-80
2022/05/25 02:47:17;;;;;;;7.75;5.35;;;;;;;26.04;47.91;100381.78;5117360;28;20054;-80
2022/05/25 02:49:44;;;;;;;8.65;5.05;;;;;;;26.03;47.99;100376.53;5116045;28;20065;-81
2022/05/25 02:52:12;;;;;;;9.48;4.93;;;;;;;26.02;48.00;100381.13;5117669;28;20043;-81
2022/05/25 02:54:40;;;;;;;7.55;5.30;;;;;;;26.02;47.90;100378.41;5116969;28;20044;-81
2022/05/25 02:57:08;;;;;;;8.25;5.45;;;;;;;26.03;48.00;100387.41;5117170;28;20043;-80
2022/05/25 02:59:35;;;;;;;7.25;5.15;;;;;;;26.02;48.09;100388.44;5114491;28;20044;-81
2022/05/25 03:02:04;;;;;;;8.00;5.25;;;;;;;26.02;48.08;100388.44;5097847;28;20050;-79
2022/05/25 03:04:40;;;;;;;12.18;5.35;;;;;;;26.02;48.10;100385.72;5115790;28;20044;-80
2022/05/25 03:07:08;;;;;;;7.90;5.10;;;;;;;26.01;48.08;100395.72;5116236;28;20048;-80
2022/05/25 03:09:36;;;;;;;8.48;5.60;;;;;;;26.02;48.09;100404.72;5098248;28;20070;-79
2022/05/25 03:12:05;;;;;;;9.38;5.40;;;;;;;26.00;48.20;100399.44;5115900;28;20405;-80
2022/05/25 03:14:34;;;;;;;5.93;4.57;;;;;;;26.01;48.38;100403.88;5116469;28;20043;-80
2022/05/25 03:17:10;;;;;;;8.55;5.15;;;;;;;26.01;48.09;100413.84;5115620;28;20043;-80
2022/05/25 03:19:37;;;;;;;11.40;5.65;;;;;;;26.00;48.30;100413.00;5116023;28;20407;-81
2022/05/25 03:22:05;;;;;;;7.18;4.78;;;;;;;26.01;48.10;100417.44;5114672;28;20044;-81
2022/05/25 03:24:32;;;;;;;6.97;5.53;;;;;;;26.01;48.20;100421.97;5116864;28;20048;-81
2022/05/25 03:27:00;;;;;;;8.20;4.93;;;;;;;26.00;48.22;100432.00;5115676;28;20047;-80
2022/05/25 03:29:28;;;;;;;7.60;4.97;;;;;;;26.00;48.22;100429.28;5115469;28;20051;-81
2022/05/25 03:31:55;;;;;;;6.47;4.70;;;;;;;26.00;48.10;100423.84;5116785;28;20479;-81
2022/05/25 03:34:23;;;;;;;9.95;6.00;;;;;;;25.98;47.90;100425.94;5116066;28;20372;-81
2022/05/25 03:36:54;;;;;;;6.07;5.10;;;;;;;25.99;47.92;100432.19;5113877;28;20051;-81
2022/05/25 03:39:23;;;;;;;7.15;5.55;;;;;;;25.98;48.10;100423.22;5115972;28;20043;-80
2022/05/25 03:42:00;;;;;;;7.20;4.90;;;;;;;25.97;47.99;100423.38;5096705;28;20057;-80
2022/05/25 03:44:28;;;;;;;8.50;5.25;;;;;;;25.96;47.88;100422.53;5116008;28;20099;-80
2022/05/25 03:46:56;;;;;;;6.93;5.10;;;;;;;25.97;47.76;100431.53;5116585;28;20048;-80
2022/05/25 03:49:23;;;;;;;10.65;5.63;;;;;;;25.96;47.79;100435.28;5098158;28;20556;-80
2022/05/25 03:51:51;;;;;;;7.68;5.10;;;;;;;25.96;47.87;100441.53;5116229;28;20403;-81
2022/05/25 03:54:18;;;;;;;6.00;5.38;;;;;;;25.95;47.96;100445.28;5115284;28;20048;-81
2022/05/25 03:56:45;;;;;;;9.27;5.53;;;;;;;25.95;47.92;100448.00;5113214;28;20407;-81
2022/05/25 03:59:13;;;;;;;7.65;5.05;;;;;;;25.95;47.85;100445.28;5113788;28;20036;-81
2022/05/25 04:01:40;;;;;;;6.88;4.72;;;;;;;25.94;47.98;100442.75;5114038;28;20065;-81
2022/05/25 04:04:08;;;;;;;7.78;4.95;;;;;;;25.94;48.37;100449.03;5114744;28;20048;-80
2022/05/25 04:06:35;;;;;;;7.55;4.97;;;;;;;25.94;47.95;100443.59;5115223;28;20054;-81
2022/05/25 04:09:03;;;;;;;7.75;4.93;;;;;;;25.92;48.23;100440.22;5114973;28;20047;-81
2022/05/25 04:11:31;;;;;;;8.13;4.65;;;;;;;25.94;48.08;100448.19;5114957;28;20040;-80
2022/05/25 04:13:59;;;;;;;7.80;5.18;;;;;;;25.91;48.08;100443.97;5115439;28;20051;-80
2022/05/25 04:16:27;;;;;;;7.47;4.78;;;;;;;25.91;48.21;100446.69;5114936;28;20403;-79
2022/05/25 04:18:54;;;;;;;6.28;4.88;;;;;;;25.91;48.15;100446.69;5115617;28;20479;-81
2022/05/25 04:21:22;;;;;;;7.88;5.25;;;;;;;25.91;48.24;100460.25;5114956;28;20483;-81
2022/05/25 04:23:49;;;;;;;9.65;5.47;;;;;;;25.92;48.39;100471.94;5115628;28;20048;-81
2022/05/25 04:26:17;;;;;;;5.43;4.90;;;;;;;25.91;48.43;100468.38;5115633;28;20047;-81
2022/05/25 04:28:44;;;;;;;8.02;5.63;;;;;;;25.91;48.53;100460.25;5114798;28;20039;-81
2022/05/25 04:31:12;;;;;;;5.55;5.05;;;;;;;25.92;48.44;100474.63;5115046;28;20044;-81
2022/05/25 04:33:40;;;;;;;9.95;5.75;;;;;;;25.91;48.40;100462.94;5115122;28;20043;-81
2022/05/25 04:36:08;;;;;;;8.18;5.38;;;;;;;25.90;48.49;100469.41;5114575;28;20169;-80
2022/05/25 04:38:36;;;;;;;7.72;5.03;;;;;;;25.91;48.53;100475.66;5115741;28;20050;-81
2022/05/25 04:41:03;;;;;;;7.05;5.53;;;;;;;25.89;48.59;100467.72;5113999;28;20487;-81
2022/05/25 04:43:30;;;;;;;8.05;4.65;;;;;;;25.90;48.85;100472.13;5113395;28;20054;-81
2022/05/25 04:46:03;;;;;;;8.75;5.28;;;;;;;25.90;48.91;100474.84;5114755;28;20043;-81
2022/05/25 04:48:30;;;;;;;7.95;5.28;;;;;;;25.89;48.96;100473.16;5114047;27;20058;-81
2022/05/25 04:50:58;;;;;;;9.18;5.30;;;;;;;25.90;48.91;100474.84;5113452;28;20058;-80
2022/05/25 04:53:26;;;;;;;8.07;5.43;;;;;;;25.90;49.19;100477.53;5114579;28;20054;-80
2022/05/25 04:58:42;;;;;;;8.20;4.88;;;;;;;25.90;49.19;100480.25;5114720;28;20415;-80
2022/05/25 05:01:11;;;;;;;6.50;4.75;;;;;;;25.89;49.21;100476.72;5115012;28;20497;-79
2022/05/25 05:03:39;;;;;;;6.40;5.20;;;;;;;25.90;49.35;100474.84;5115186;28;20058;-80
2022/05/25 05:06:09;;;;;;;8.18;4.82;;;;;;;25.90;49.32;100493.81;5114641;28;20490;-80
2022/05/25 05:08:37;;;;;;;6.68;5.00;;;;;;;25.90;49.38;100491.09;5115084;28;20043;-81
2022/05/25 05:11:18;;;;;;;6.95;4.72;;;;;;;25.90;49.35;100485.69;5114141;28;20043;-82
2022/05/25 05:13:45;;;;;;;6.97;5.53;;;;;;;25.90;49.57;100496.53;5115493;28;20051;-81
2022/05/25 05:16:15;;;;;;;6.35;4.65;;;;;;;25.89;49.25;100494.84;5115445;28;20040;-81
2022/05/25 05:18:45;;;;;;;5.50;4.47;;;;;;;25.89;49.67;100506.53;5113785;28;20055;-82
2022/05/25 05:21:13;;;;;;;5.97;4.90;;;;;;;25.90;49.62;100507.38;5113119;28;20055;-82
2022/05/25 05:23:41;;;;;;;7.05;4.35;;;;;;;25.90;49.63;100512.81;5112723;28;20043;-81
2022/05/25 05:26:08;;;;;;;6.75;4.97;;;;;;;25.91;49.64;100511.78;5122510;28;20406;-82
2022/05/25 05:28:39;;;;;;;5.82;4.57;;;;;;;25.90;49.72;100512.81;5112134;28;20054;-82
2022/05/25 05:31:07;;;;;;;5.30;4.10;;;;;;;25.91;49.75;100508.22;5113846;28;20047;-81
2022/05/25 05:33:36;;;;;;;7.80;4.60;;;;;;;25.90;50.01;100515.50;5112562;28;20406;-80
2022/05/25 05:36:17;;;;;;;6.32;4.60;;;;;;;25.91;49.68;100516.34;5116754;28;20040;-83
2022/05/25 05:39:09;;;;;;;6.70;5.10;;;;;;;25.84;49.91;100519.78;5118278;28;20047;-78
2022/05/25 05:41:42;;;;;;;7.65;4.93;;;;;;;25.79;49.81;100521.38;5109192;28;20052;-79
2022/05/25 05:44:14;;;;;;;5.68;4.68;;;;;;;25.74;50.05;100526.47;5117732;28;20054;-79
2022/05/25 05:46:42;;;;;;;8.23;5.28;;;;;;;25.70;50.31;100527.84;5117857;28;20048;-79
2022/05/25 05:49:11;;;;;;;7.57;4.68;;;;;;;25.69;50.52;100527.00;5115593;28;20498;-79
2022/05/25 05:51:39;;;;;;;6.82;4.93;;;;;;;25.65;50.41;100529.25;5118537;28;20051;-79
2022/05/25 05:54:07;;;;;;;7.93;5.25;;;;;;;25.62;50.51;100526.88;5117588;28;20070;-78
2022/05/25 05:56:35;;;;;;;9.10;4.90;;;;;;;25.57;50.48;100533.88;5116785;28;20055;-79
2022/05/25 05:59:03;;;;;;;8.52;4.72;;;;;;;25.55;50.78;100535.91;5115333;28;20048;-79
2022/05/25 06:01:30;;;;;;;8.05;4.60;;;;;;;25.53;50.98;100533.41;5116712;28;20380;-79
2022/05/25 06:03:58;;;;;;;7.68;5.05;;;;;;;25.54;51.05;100547.78;5117544;28;20066;-79
2022/05/25 06:06:25;;;;;;;9.35;4.85;;;;;;;25.52;51.02;100547.97;5115625;28;20525;-79
2022/05/25 06:08:53;;;;;;;6.90;4.30;;;;;;;25.52;51.01;100553.41;5116714;28;20067;-79
2022/05/25 06:11:21;;;;;;;12.52;5.57;;;;;;;25.51;51.23;100548.13;5098883;28;20051;-79
2022/05/25 06:13:49;;;;;;;8.77;5.22;;;;;;;25.53;51.53;100557.78;5116599;28;20403;-79
2022/05/25 06:21:48;;;;;;;6.53;4.40;;;;;;;25.51;51.55;100561.69;5116343;28;20047;-79
2022/05/25 06:24:15;;;;;;;7.97;5.28;;;;;;;25.51;51.82;100572.53;5116743;28;20039;-79
2022/05/25 06:26:43;;;;;;;10.68;5.15;;;;;;;25.50;51.95;100576.28;5116564;28;20495;-79
2022/05/25 06:29:11;;;;;;;9.80;5.32;;;;;;;25.50;52.09;100581.69;5116354;28;20044;-79
2022/05/25 06:31:38;;;;;;;12.05;5.55;;;;;;;25.41;52.22;100583.59;5116235;28;20399;-79
2022/05/25 06:34:06;;;;;;;11.50;6.35;;;;;;;25.32;52.49;100584.66;5116321;28;20035;-79
2022/05/25 06:36:33;;;;;;;11.68;6.18;;;;;;;25.22;52.95;100581.34;5115984;28;20055;-77
2022/05/25 06:39:00;;;;;;;11.55;6.30;;;;;;;25.08;53.56;100594.56;5114175;28;20055;-79
2022/05/25 06:41:28;;;;;;;7.50;6.22;;;;;;;25.04;54.04;100603.22;5116017;28;20044;-79
2022/05/25 06:43:56;;;;;;;11.18;5.82;;;;;;;25.03;53.99;100605.06;5115998;28;20036;-78
2022/05/25 06:46:24;;;;;;;10.30;6.72;;;;;;;25.00;54.12;100602.72;5114750;28;20044;-78
2022/05/25 06:48:54;;;;;;;14.75;7.22;;;;;;;24.94;54.27;100608.81;5116319;28;20039;-80
2022/05/25 06:51:24;;;;;;;14.55;5.80;;;;;;;24.93;54.53;100607.16;5109140;27;20047;-77
2022/05/25 06:53:52;;;;;;;14.73;6.43;;;;;;;24.97;54.26;100613.06;5095489;28;20036;-79
2022/05/25 06:56:22;;;;;;;10.93;6.85;;;;;;;24.94;54.03;100613.41;5095339;28;20054;-80
2022/05/25 06:58:51;;;;;;;13.05;7.22;;;;;;;24.90;55.18;100602.91;5112809;28;20040;-80
2022/05/25 07:01:20;;;;;;;9.27;5.75;;;;;;;24.83;55.20;100611.91;5116683;28;20050;-79
2022/05/25 07:03:48;;;;;;;13.25;7.05;;;;;;;24.90;54.18;100613.75;5114221;28;20051;-78
2022/05/25 07:06:17;;;;;;;12.93;7.28;;;;;;;24.91;54.24;100612.75;5096103;28;20047;-78
2022/05/25 07:08:45;;;;;;;13.27;6.50;;;;;;;24.91;54.40;100617.28;5101991;28;20043;-80
2022/05/25 07:11:13;;;;;;;9.30;6.40;;;;;;;24.92;54.62;100617.13;5113592;28;20048;-78
2022/05/25 07:13:41;;;;;;;10.57;6.40;;;;;;;24.93;54.48;100620.69;5115610;28;20050;-79
2022/05/25 07:16:13;;;;;;;12.63;7.47;;;;;;;24.94;54.12;100625.06;5115569;28;20050;-79
2022/05/25 07:18:42;;;;;;;11.43;7.00;;;;;;;24.95;54.24;100634.88;5107976;28;20052;-78
2022/05/25 07:21:14;;;;;;;12.45;6.57;;;;;;;24.95;54.38;100629.47;5095264;28;20048;-78
2022/05/25 07:23:44;;;;;;;10.98;6.65;;;;;;;24.97;54.12;100626.59;5094269;28;20048;-81
2022/05/25 07:26:13;;;;;;;9.63;5.60;;;;;;;24.99;54.40;100624.56;5096548;28;20048;-80
2022/05/25 07:28:41;;;;;;;11.25;6.10;;;;;;;25.01;54.45;100620.66;5094926;28;20044;-80
2022/05/25 07:31:13;;;;;;;13.88;6.22;;;;;;;25.06;54.54;100628.25;5093635;28;20047;-81
2022/05/25 07:33:42;;;;;;;;;;;;;;;25.07;54.50;100629.94;5093826;28;20052;-77
2022/05/25 07:36:11;;;;;;;12.02;6.75;;;;;;;25.06;54.54;100626.38;5094459;28;19931;-78
2022/05/25 07:38:44;;;;;;;10.40;6.68;;;;;;;25.06;55.01;100634.50;5096953;28;20044;-79
2022/05/25 07:41:12;;;;;;;8.07;6.25;;;;;;;25.10;54.87;100635.03;5095770;28;20043;-80
2022/05/25 07:43:42;;;;;;;11.00;6.72;;;;;;;25.10;54.60;100646.72;5094700;28;20065;-80
2022/05/25 07:46:10;;;;;;;9.93;7.43;;;;;;;25.09;54.52;100639.63;5092877;28;20059;-79
2022/05/25 07:48:38;;;;;;;8.10;6.40;;;;;;;25.09;54.58;100644.19;5094897;28;20487;-79
2022/05/25 07:51:06;;;;;;;12.38;7.55;;;;;;;25.09;54.02;100652.34;5094599;28;20047;-78
2022/05/25 07:56:19;;;;;;;13.32;7.15;;;;;;;25.09;53.79;100644.19;5093986;28;20047;-79
2022/05/25 07:58:46;;;;;;;8.57;6.50;;;;;;;25.09;53.86;100655.88;5105349;28;20054;-80
2022/05/25 08:01:17;;;;;;;10.98;6.22;;;;;;;25.09;54.19;100650.47;5114587;28;20376;-79
2022/05/25 08:06:33;;;;;;;13.10;7.55;;;;;;;25.10;54.20;100654.00;5114366;28;20040;-79
2022/05/25 08:09:00;;;;;;;11.18;7.78;;;;;;;25.08;54.31;100659.59;5112922;28;20036;-80
2022/05/25 08:11:30;;;;;;;13.40;7.47;;;;;;;25.08;54.65;100653.31;5112994;28;20050;-79
2022/05/25 08:13:57;;;;;;;9.10;7.07;;;;;;;25.07;54.78;100646.19;5114536;28;20066;-79
2022/05/25 08:16:25;;;;;;;16.02;8.43;;;;;;;25.07;54.78;100652.44;5115136;28;20048;-76
2022/05/25 08:18:52;;;;;;;12.18;8.15;;;;;;;25.06;54.63;100658.91;5116263;28;20054;-79
2022/05/25 08:21:19;;;;;;;11.95;8.07;;;;;;;25.05;54.93;100656.38;5113714;28;20039;-77
2022/05/25 08:24:07;;;;;;;12.25;7.30;;;;;;;25.03;55.10;100659.22;5114066;28;20066;-79
2022/05/25 08:26:34;;;;;;;11.40;7.43;;;;;;;25.06;54.97;100658.91;5114161;28;20422;-80
2022/05/25 08:29:02;;;;;;;9.25;6.20;;;;;;;25.10;54.38;100667.56;5114290;28;20054;-78
2022/05/25 08:31:29;;;;;;;9.18;5.95;;;;;;;25.14;54.41;100669.75;5114020;28;20039;-80
2022/05/25 08:33:57;;;;;;;10.48;6.30;;;;;;;25.21;54.39;100669.06;5113944;28;20036;-84
2022/05/25 08:36:25;;;;;;;11.00;5.60;;;;;;;25.27;54.21;100676.47;5113854;28;20056;-83
2022/05/25 08:38:55;;;;;;;7.85;5.60;;;;;;;25.32;54.13;100682.19;5114610;28;20048;-81
2022/05/25 08:41:27;;;;;;;10.38;5.15;;;;;;;25.36;54.07;100678.13;5114957;28;20048;-82
2022/05/25 08:43:57;;;;;;;6.60;5.05;;;;;;;25.42;53.93;100695.56;5114597;28;20105;-84
2022/05/25 08:46:25;;;;;;;7.43;5.65;;;;;;;25.44;54.00;100702.47;5113415;28;20052;-79
2022/05/25 08:48:53;;;;;;;9.25;5.85;;;;;;;25.47;53.53;100707.56;5115130;28;20043;-79
2022/05/25 08:51:44;;;;;;;10.80;5.95;;;;;;;25.45;52.84;100703.34;5115150;28;20043;-79
2022/05/25 08:54:12;;;;;;;10.73;5.60;;;;;;;25.42;52.21;100700.97;5115231;28;20050;-76
2022/05/25 08:56:50;;;;;;;7.32;6.28;;;;;;;25.40;52.63;100703.84;5113754;28;20051;-78
2022/05/25 08:59:26;;;;;;;12.77;6.18;;;;;;;25.40;53.40;100711.97;5113189;28;20046;-79
2022/05/25 09:02:24;;;;;;;9.55;6.75;;;;;;;25.37;53.41;100715.91;5113025;28;20044;-79
2022/05/25 09:05:01;;;;;;;11.35;6.50;;;;;;;25.36;52.77;100716.06;5114037;28;20066;-79
2022/05/25 09:07:50;;;;;;;10.45;5.70;;;;;;;25.33;52.22;100703.72;5113686;28;20216;-84
2022/05/25 09:10:19;;;;;;;10.77;5.85;;;;;;;25.31;51.51;100702.19;5113006;28;20043;-80
2022/05/25 09:12:58;;;;;;;9.40;5.65;;;;;;;25.32;51.60;100712.00;5115632;28;20043;-81
2022/05/25 09:15:28;;;;;;;8.25;5.78;;;;;;;25.31;52.12;100705.75;5114985;28;20475;-80
2022/05/25 09:18:13;;;;;;;12.93;6.20;;;;;;;25.33;52.51;100711.84;5113155;28;20044;-79
2022/05/25 09:20:47;;;;;;;6.47;5.07;;;;;;;25.33;52.55;100700.16;5113050;28;20052;-79
2022/05/25 09:23:16;;;;;;;9.73;5.72;;;;;;;25.32;53.11;100703.88;5114795;28;20075;-78
2022/05/25 09:25:46;;;;;;;8.20;5.90;;;;;;;25.33;52.69;100709.16;5114291;28;20114;-76
2022/05/25 09:28:21;;;;;;;12.82;5.70;;;;;;;25.33;53.26;100709.16;5113984;28;20048;-79
2022/05/25 09:30:53;;;;;;;10.93;5.78;;;;;;;25.34;52.72;100712.69;5114323;28;20051;-80
2022/05/25 09:33:21;;;;;;;9.50;5.53;;;;;;;25.35;52.37;100703.53;5096303;28;20058;-81
2022/05/25 09:35:54;;;;;;;18.98;7.60;;;;;;;25.34;52.23;100702.69;5113227;28;20047;-80
2022/05/25 09:38:34;;;;;;;8.90;5.63;;;;;;;25.37;52.55;100712.34;5112355;28;20055;-78
2022/05/25 09:41:06;;;;;;;10.85;5.63;;;;;;;25.36;52.93;100710.63;5112868;28;20050;-79
2022/05/25 09:43:34;;;;;;;14.48;6.32;;;;;;;25.37;52.87;100715.06;5113490;28;20047;-81
2022/05/25 09:46:34;;;;;;;8.23;5.13;;;;;;;25.38;52.11;100716.75;5112128;28;20047;-79
2022/05/25 09:49:06;;;;;;;13.10;6.68;;;;;;;25.37;52.44;100724.03;5114073;28;20047;-80
2022/05/25 09:51:40;;;;;;;9.38;6.32;;;;;;;25.39;52.71;100731.97;5114418;28;20406;-81
2022/05/25 09:54:29;;;;;;;10.05;5.97;;;;;;;25.39;52.80;100737.41;5112874;28;20040;-79
2022/05/25 09:57:04;;;;;;;7.72;5.75;;;;;;;25.40;53.30;100739.97;5113585;28;20043;-78
2022/05/25 09:59:42;;;;;;;7.47;6.07;;;;;;;25.41;53.47;100735.38;5112989;28;20051;-80
2022/05/25 10:02:23;;;;;;;10.27;6.32;;;;;;;25.44;53.67;100736.88;5112386;28;20040;-78
2022/05/25 10:04:52;;;;;;;12.02;6.03;;;;;;;25.46;53.89;100738.41;5113725;28;20058;-79
2022/05/25 10:07:30;;;;;;;9.05;5.60;;;;;;;25.45;54.30;100734.00;5113874;28;20054;-80
2022/05/25 10:10:01;;;;;;;9.50;6.53;;;;;;;25.47;53.85;100736.53;5112769;28;20048;-80
2022/05/25 10:12:40;;;;;;;12.57;7.07;;;;;;;25.49;53.63;100737.22;5112385;28;20056;-79
2022/05/25 10:15:33;;;;;;;11.32;6.28;;;;;;;25.48;52.96;100728.25;5113463;28;20494;-79
2022/05/25 10:18:01;;;;;;;12.00;6.45;;;;;;;25.49;53.10;100732.63;5112849;28;20521;-80
2022/05/25 10:20:34;;;;;;;11.55;6.82;;;;;;;25.50;53.56;100723.47;5115032;28;20098;-81
2022/05/25 10:23:09;;;;;;;12.93;6.88;;;;;;;25.52;54.31;100723.28;5117365;28;20047;-79
2022/05/25 10:25:42;;;;;;;8.70;6.20;;;;;;;25.52;54.06;100732.28;5118571;28;20483;-80
2022/05/25 10:28:30;;;;;;;9.73;6.55;;;;;;;25.54;53.81;100735.66;5115640;27;20052;-78
2022/05/25 10:37:08;;;;;;;10.30;6.20;;;;;;;25.56;53.11;100721.91;5114548;28;20056;-76
2022/05/25 10:39:40;;;;;;;9.27;6.18;;;;;;;25.58;52.85;100723.44;5116703;28;20058;-81
2022/05/25 10:42:25;;;;;;;8.32;5.43;;;;;;;25.60;53.12;100726.84;5118496;28;20491;-77
2022/05/25 10:45:01;;;;;;;10.30;5.97;;;;;;;25.63;53.54;100728.34;5116122;28;20059;-78
2022/05/25 10:47:43;;;;;;;9.20;5.63;;;;;;;25.62;53.52;100722.06;5117972;28;20044;-79
2022/05/25 10:50:32;;;;;;;13.70;5.78;;;;;;;25.64;53.48;100724.59;5117694;28;20047;-80
2022/05/25 10:53:29;;;;;;;7.43;5.82;;;;;;;25.64;52.79;100717.34;5116601;28;20388;-79
2022/05/25 10:56:53;;;;;;;12.82;6.53;;;;;;;25.67;52.85;100715.28;5116482;28;20043;-80
2022/05/25 10:59:30;;;;;;;11.00;6.00;;;;;;;25.67;52.96;100728.84;5053051;28;20061;-80
2022/05/25 11:01:57;;;;;;;7.57;5.70;;;;;;;25.67;53.02;100728.84;5053923;28;20056;-80
2022/05/25 11:04:52;;;;;;;13.85;6.35;;;;;;;25.67;52.94;100732.38;5036498;28;20045;-80
2022/05/25 11:07:27;;;;;;;10.93;6.50;;;;;;;25.68;53.30;100730.50;5046754;28;20429;-79
2022/05/25 11:10:19;;;;;;;9.90;5.97;;;;;;;25.70;53.27;100733.91;5032930;28;20516;-77
2022/05/25 11:13:15;;;;;;;12.57;6.60;;;;;;;25.73;53.18;100734.41;5033331;28;20049;-80
2022/05/25 11:16:09;;;;;;;9.77;6.10;;;;;;;25.74;52.60;100724.41;5032407;28;20068;-76
2022/05/25 11:18:47;;;;;;;10.27;6.18;;;;;;;25.74;52.96;100725.25;5031859;28;20213;-78
2022/05/25 11:21:36;;;;;;;11.82;7.28;;;;;;;25.75;53.10;100721.50;5033330;28;20061;-78
2022/05/25 11:24:13;;;;;;;12.48;8.77;;;;;;;25.77;53.48;100724.06;5032022;28;20068;-79
2022/05/25 11:26:56;;;;;;;21.30;13.20;;;;;;;25.77;53.15;100719.50;5035578;28;20444;-79
2022/05/25 11:29:30;;;;;;;26.67;18.63;;;;;;;25.78;53.52;100723.91;5049899;28;20060;-82
2022/05/25 11:32:02;;;;;;;34.63;23.02;;;;;;;25.78;53.13;100718.47;5093116;28;20056;-78
2022/05/25 11:35:01;;;;;;;22.25;18.83;;;;;;;25.80;53.58;100718.28;5105537;28;20047;-79
2022/05/25 11:37:41;;;;;;;23.88;17.42;;;;;;;25.81;53.30;100717.28;5115193;28;20411;-78
2022/05/25 11:40:36;;;;;;;21.67;18.83;;;;;;;25.82;53.55;100718.97;5114970;28;20047;-78
2022/05/25 11:43:40;;;;;;;20.85;17.95;;;;;;;25.83;53.42;100720.66;5114329;28;20043;-78
2022/05/25 11:46:26;;;;;;;20.80;16.55;;;;;;;25.83;53.38;100728.78;5115945;28;20486;-78
2022/05/25 11:49:38;;;;;;;16.38;12.63;;;;;;;25.85;53.59;100721.34;5115485;28;20399;-82
2022/05/25 11:52:25;;;;;;;;;;;;;;;25.86;53.74;100721.16;5115314;28;20044;-79
2022/05/25 11:55:15;;;;;;;16.10;9.98;;;;;;;25.87;53.32;100730.13;5115851;28;19919;-80
2022/05/25 11:58:02;;;;;;;11.13;10.02;;;;;;;25.87;53.42;100730.13;5114142;28;20055;-82
2022/05/25 12:00:58;;;;;;;11.32;8.63;;;;;;;25.87;52.83;100722.00;5116392;28;20054;-82
2022/05/25 12:03:40;;;;;;;11.23;7.90;;;;;;;25.87;52.22;100724.69;5106316;28;20051;-81
2022/05/25 12:06:24;;;;;;;8.10;6.55;;;;;;;25.88;51.75;100719.09;5115651;28;20131;-78
2022/05/25 12:09:12;;;;;;;11.00;7.68;;;;;;;25.88;51.85;100715.53;5114830;28;20062;-78
2022/05/25 12:11:39;;;;;;;10.45;7.03;;;;;;;25.89;52.15;100719.97;5115134;28;20047;-78
2022/05/25 12:14:22;;;;;;;10.73;6.93;;;;;;;25.89;52.05;100720.78;5113383;28;20074;-78
2022/05/25 12:16:56;;;;;;;9.18;6.60;;;;;;;25.90;51.72;100716.22;5114601;28;20040;-78